Thursday, October 30, 2014
15:16 UTC
  |  Log In   |  Register Free
Airport Search:

Petaluma Municipal Airport
(KO69)

Petaluma Municipal Airport Diagram
No Airport Diagram Available

FAA data valid effective September 18, 2014 - November 13, 2014 (unless otherwise noted).

 
 
 
 
 
 
 
 
 
 
 
 
 
 

Current Aviation Weather for Petaluma Municipal Airport (KO69)

The most recent METAR observation for KO69 was updated at: 1514
METAR Summary (Translated METAR)
KO69
301350Z AUTO 00000KT 10SM CLR 10/09 A2996 RMK AO1
KDVO
301455Z AUTO 00000KT 12/10 A2994 RMK AO2
(7.3 nm SE from KO69)
KAPC
301454Z AUTO 36006KT 10SM CLR 12/11 A2993 RMK AO2 SLP127 T01220106 51001
(15.6 nm SE from KO69)
TAF
No TAF information found within 50 nm of KDVO
  Airport Weather Conditions for KO69

 Current Weather at O69
48° F
Fair
North winds at 0.0 mph
O69 NOAA Radar

Pressure: 29.96 in
Humidity: 100%
Wind: Calm
Dew Point: 48.2°F
Visibility: 10.00 mi


Airport Weather Forecast for KO69

Translated METAR and TAF for KDVO
Translated METAR for KDVO (1511 UTC 30 October 2014)
found at http://aviationweather.gov/adds/metars/
 
METAR text: KDVO 301455Z AUTO 00000KT 12/10 A2994 RMK AO2
Conditions at: KDVO (NOVATO/GNOSS FLD, CA, US) observed 1455 UTC 30 October 2014
Temperature: 12.0°C (54°F)
Dewpoint: 10.0°C (50°F) [RH = 88%]
Pressure (altimeter): 29.94 inches Hg (1014.0 mb)
Winds: calm
Visibility: missing
Ceiling: unknown
Clouds: missing
Weather: automated observation with no human augmentation;
there may or may not be significant weather present at this time
Translated TAF for KDVO

There is no translated TAF available for this airport

Find All Airport Services Find A Hotel Find A Rental Car Find A Golf Course Find A Restaurant $100 Hamburger



FBO's on the Field
FBO Company Facility Photos Services Transportation Aviation Fuel Prices: Prices include tax
Catering Weather Repair Courtesy Rental Type 100LL JetA JetA+ MOGAS 8087
 
Petaluma Municipal Airport

Currently rated 4.8 by 1 person
FS:Ascent
Last Updated: Oct-12
Login to update fuel prices
SS:
Contact Petaluma Municipal AirportMore FBO Information
 
Add another FBO Facility Photos Catering Weather Repair Courtesy Rental Type 100LL JetA JetA+ MOGAS 8087
Services Transportation Aviation Fuel Prices: Prices include tax


model-print
model-print
model-print
model-print